sensor_id;sensor_type;location;lat;lon;timestamp;P1;durP1;ratioP1;P2;durP2;ratioP2
16667;SDS011;8447;52.630;4.734;2023-06-14T00:01:53;5.67;;;1.60;;
16667;SDS011;8447;52.630;4.734;2023-06-14T00:04:20;4.73;;;1.90;;
16667;SDS011;8447;52.630;4.734;2023-06-14T00:06:50;1.97;;;1.57;;
16667;SDS011;8447;52.630;4.734;2023-06-14T00:09:16;4.70;;;2.27;;
16667;SDS011;8447;52.630;4.734;2023-06-14T00:11:44;8.53;;;2.10;;
16667;SDS011;8447;52.630;4.734;2023-06-14T00:14:11;2.17;;;1.47;;
16667;SDS011;8447;52.630;4.734;2023-06-14T00:16:37;4.37;;;2.00;;
16667;SDS011;8447;52.630;4.734;2023-06-14T00:19:03;4.33;;;2.23;;
16667;SDS011;8447;52.630;4.734;2023-06-14T00:21:30;6.23;;;1.83;;
16667;SDS011;8447;52.630;4.734;2023-06-14T00:23:57;3.40;;;1.80;;
16667;SDS011;8447;52.630;4.734;2023-06-14T00:26:24;7.43;;;2.20;;
16667;SDS011;8447;52.630;4.734;2023-06-14T00:28:53;2.53;;;1.67;;
16667;SDS011;8447;52.630;4.734;2023-06-14T00:31:19;3.23;;;1.80;;
16667;SDS011;8447;52.630;4.734;2023-06-14T00:33:45;2.57;;;1.80;;
16667;SDS011;8447;52.630;4.734;2023-06-14T00:36:12;2.43;;;1.67;;
16667;SDS011;8447;52.630;4.734;2023-06-14T00:38:38;3.77;;;1.83;;
16667;SDS011;8447;52.630;4.734;2023-06-14T00:41:05;3.93;;;1.63;;
16667;SDS011;8447;52.630;4.734;2023-06-14T00:43:31;6.77;;;1.90;;
16667;SDS011;8447;52.630;4.734;2023-06-14T00:46:01;3.40;;;1.60;;
16667;SDS011;8447;52.630;4.734;2023-06-14T00:48:27;2.50;;;1.90;;
16667;SDS011;8447;52.630;4.734;2023-06-14T00:50:54;6.00;;;2.03;;
16667;SDS011;8447;52.630;4.734;2023-06-14T00:53:21;3.33;;;2.07;;
16667;SDS011;8447;52.630;4.734;2023-06-14T00:55:48;3.43;;;1.77;;
16667;SDS011;8447;52.630;4.734;2023-06-14T00:58:14;3.77;;;2.03;;
16667;SDS011;8447;52.630;4.734;2023-06-14T01:00:41;3.27;;;1.77;;
16667;SDS011;8447;52.630;4.734;2023-06-14T01:03:08;5.23;;;1.63;;
16667;SDS011;8447;52.630;4.734;2023-06-14T01:05:39;2.57;;;1.60;;
16667;SDS011;8447;52.630;4.734;2023-06-14T01:08:10;6.93;;;1.53;;
16667;SDS011;8447;52.630;4.734;2023-06-14T01:10:41;3.30;;;1.80;;
16667;SDS011;8447;52.630;4.734;2023-06-14T01:13:12;10.93;;;1.80;;
16667;SDS011;8447;52.630;4.734;2023-06-14T01:15:38;3.37;;;2.20;;
16667;SDS011;8447;52.630;4.734;2023-06-14T01:18:05;3.30;;;1.57;;
16667;SDS011;8447;52.630;4.734;2023-06-14T01:20:33;3.67;;;1.87;;
16667;SDS011;8447;52.630;4.734;2023-06-14T01:23:03;3.30;;;1.90;;
16667;SDS011;8447;52.630;4.734;2023-06-14T01:25:29;7.07;;;2.27;;
16667;SDS011;8447;52.630;4.734;2023-06-14T01:27:57;4.63;;;1.70;;
16667;SDS011;8447;52.630;4.734;2023-06-14T01:30:24;2.37;;;1.37;;
16667;SDS011;8447;52.630;4.734;2023-06-14T01:32:52;5.27;;;1.73;;
16667;SDS011;8447;52.630;4.734;2023-06-14T01:35:19;3.03;;;1.73;;
16667;SDS011;8447;52.630;4.734;2023-06-14T01:37:46;3.63;;;1.60;;
16667;SDS011;8447;52.630;4.734;2023-06-14T01:40:15;3.57;;;1.77;;
16667;SDS011;8447;52.630;4.734;2023-06-14T01:42:41;2.20;;;1.50;;
16667;SDS011;8447;52.630;4.734;2023-06-14T01:45:08;3.07;;;1.50;;
16667;SDS011;8447;52.630;4.734;2023-06-14T01:47:35;6.60;;;2.03;;
16667;SDS011;8447;52.630;4.734;2023-06-14T01:50:02;5.93;;;1.87;;
16667;SDS011;8447;52.630;4.734;2023-06-14T01:52:28;5.83;;;2.10;;
16667;SDS011;8447;52.630;4.734;2023-06-14T01:54:55;5.30;;;1.70;;
16667;SDS011;8447;52.630;4.734;2023-06-14T01:57:24;6.27;;;1.87;;
16667;SDS011;8447;52.630;4.734;2023-06-14T01:59:51;3.53;;;1.87;;
16667;SDS011;8447;52.630;4.734;2023-06-14T02:02:18;5.03;;;1.50;;
16667;SDS011;8447;52.630;4.734;2023-06-14T02:04:44;4.93;;;1.57;;
16667;SDS011;8447;52.630;4.734;2023-06-14T02:07:12;3.83;;;1.67;;
16667;SDS011;8447;52.630;4.734;2023-06-14T02:09:40;3.47;;;1.30;;
16667;SDS011;8447;52.630;4.734;2023-06-14T02:12:06;2.53;;;1.63;;
16667;SDS011;8447;52.630;4.734;2023-06-14T02:14:34;2.60;;;1.80;;
16667;SDS011;8447;52.630;4.734;2023-06-14T02:17:01;2.60;;;1.37;;
16667;SDS011;8447;52.630;4.734;2023-06-14T02:19:27;3.27;;;1.50;;
16667;SDS011;8447;52.630;4.734;2023-06-14T02:21:53;4.30;;;1.70;;
16667;SDS011;8447;52.630;4.734;2023-06-14T02:24:20;3.80;;;1.57;;
16667;SDS011;8447;52.630;4.734;2023-06-14T02:26:48;3.70;;;1.47;;
16667;SDS011;8447;52.630;4.734;2023-06-14T02:29:14;4.43;;;1.63;;
16667;SDS011;8447;52.630;4.734;2023-06-14T02:31:42;6.60;;;1.93;;
16667;SDS011;8447;52.630;4.734;2023-06-14T02:34:08;2.27;;;1.30;;
16667;SDS011;8447;52.630;4.734;2023-06-14T02:36:35;3.57;;;1.70;;
16667;SDS011;8447;52.630;4.734;2023-06-14T02:39:06;2.03;;;1.63;;
16667;SDS011;8447;52.630;4.734;2023-06-14T02:41:33;4.63;;;1.40;;
16667;SDS011;8447;52.630;4.734;2023-06-14T02:43:59;3.00;;;1.70;;
16667;SDS011;8447;52.630;4.734;2023-06-14T02:46:26;5.70;;;1.67;;
16667;SDS011;8447;52.630;4.734;2023-06-14T02:48:53;3.40;;;1.63;;
16667;SDS011;8447;52.630;4.734;2023-06-14T02:51:20;2.23;;;1.53;;
16667;SDS011;8447;52.630;4.734;2023-06-14T02:53:46;1.87;;;1.40;;
16667;SDS011;8447;52.630;4.734;2023-06-14T02:56:13;2.87;;;1.50;;
16667;SDS011;8447;52.630;4.734;2023-06-14T02:58:42;1.87;;;1.37;;
16667;SDS011;8447;52.630;4.734;2023-06-14T03:01:08;7.97;;;1.70;;
16667;SDS011;8447;52.630;4.734;2023-06-14T03:03:37;4.50;;;1.40;;
16667;SDS011;8447;52.630;4.734;2023-06-14T03:06:05;4.23;;;1.60;;
16667;SDS011;8447;52.630;4.734;2023-06-14T03:08:33;5.10;;;1.50;;
16667;SDS011;8447;52.630;4.734;2023-06-14T03:11:03;3.23;;;2.23;;
16667;SDS011;8447;52.630;4.734;2023-06-14T03:13:30;2.20;;;1.23;;
16667;SDS011;8447;52.630;4.734;2023-06-14T03:15:57;2.00;;;1.60;;
16667;SDS011;8447;52.630;4.734;2023-06-14T03:18:23;5.13;;;1.37;;
16667;SDS011;8447;52.630;4.734;2023-06-14T03:20:50;2.90;;;1.40;;
16667;SDS011;8447;52.630;4.734;2023-06-14T03:23:18;1.97;;;1.70;;
16667;SDS011;8447;52.630;4.734;2023-06-14T03:25:46;4.63;;;1.67;;
16667;SDS011;8447;52.630;4.734;2023-06-14T03:28:12;3.97;;;1.70;;
16667;SDS011;8447;52.630;4.734;2023-06-14T03:30:39;3.63;;;1.77;;
16667;SDS011;8447;52.630;4.734;2023-06-14T03:33:06;3.83;;;1.57;;
16667;SDS011;8447;52.630;4.734;2023-06-14T03:35:33;3.10;;;1.50;;
16667;SDS011;8447;52.630;4.734;2023-06-14T03:38:00;3.03;;;1.80;;
16667;SDS011;8447;52.630;4.734;2023-06-14T03:40:29;3.23;;;1.57;;
16667;SDS011;8447;52.630;4.734;2023-06-14T03:42:56;1.40;;;1.30;;
16667;SDS011;8447;52.630;4.734;2023-06-14T03:45:22;2.57;;;1.30;;
16667;SDS011;8447;52.630;4.734;2023-06-14T03:47:49;3.40;;;1.40;;
16667;SDS011;8447;52.630;4.734;2023-06-14T03:50:15;7.73;;;1.63;;
16667;SDS011;8447;52.630;4.734;2023-06-14T03:52:42;3.13;;;1.53;;
16667;SDS011;8447;52.630;4.734;2023-06-14T03:55:08;3.50;;;1.17;;
16667;SDS011;8447;52.630;4.734;2023-06-14T03:57:36;2.20;;;1.43;;
16667;SDS011;8447;52.630;4.734;2023-06-14T04:00:03;2.93;;;1.57;;
16667;SDS011;8447;52.630;4.734;2023-06-14T04:02:31;4.63;;;1.37;;
16667;SDS011;8447;52.630;4.734;2023-06-14T04:04:57;13.83;;;1.77;;
16667;SDS011;8447;52.630;4.734;2023-06-14T04:07:24;2.00;;;1.27;;
16667;SDS011;8447;52.630;4.734;2023-06-14T04:09:53;5.00;;;1.40;;
16667;SDS011;8447;52.630;4.734;2023-06-14T04:12:20;3.50;;;1.70;;
16667;SDS011;8447;52.630;4.734;2023-06-14T04:14:48;4.17;;;1.53;;
16667;SDS011;8447;52.630;4.734;2023-06-14T04:17:14;5.07;;;1.63;;
16667;SDS011;8447;52.630;4.734;2023-06-14T04:19:41;4.70;;;1.70;;
16667;SDS011;8447;52.630;4.734;2023-06-14T04:22:07;9.23;;;1.70;;
16667;SDS011;8447;52.630;4.734;2023-06-14T04:24:35;4.43;;;1.53;;
16667;SDS011;8447;52.630;4.734;2023-06-14T04:27:02;1.60;;;1.40;;
16667;SDS011;8447;52.630;4.734;2023-06-14T04:29:28;2.57;;;1.60;;
16667;SDS011;8447;52.630;4.734;2023-06-14T04:31:57;2.30;;;1.47;;
16667;SDS011;8447;52.630;4.734;2023-06-14T04:34:25;5.90;;;1.50;;
16667;SDS011;8447;52.630;4.734;2023-06-14T04:36:54;2.07;;;1.43;;
16667;SDS011;8447;52.630;4.734;2023-06-14T04:39:21;2.63;;;1.73;;
16667;SDS011;8447;52.630;4.734;2023-06-14T04:41:47;4.43;;;1.57;;
16667;SDS011;8447;52.630;4.734;2023-06-14T04:44:16;3.77;;;1.30;;
16667;SDS011;8447;52.630;4.734;2023-06-14T04:46:43;2.53;;;1.37;;
16667;SDS011;8447;52.630;4.734;2023-06-14T04:49:12;1.90;;;1.30;;
16667;SDS011;8447;52.630;4.734;2023-06-14T04:51:39;2.60;;;1.50;;
16667;SDS011;8447;52.630;4.734;2023-06-14T04:54:06;6.73;;;1.67;;
16667;SDS011;8447;52.630;4.734;2023-06-14T04:56:38;2.13;;;1.67;;
16667;SDS011;8447;52.630;4.734;2023-06-14T04:59:05;2.50;;;1.50;;
16667;SDS011;8447;52.630;4.734;2023-06-14T05:01:31;4.30;;;1.70;;
16667;SDS011;8447;52.630;4.734;2023-06-14T05:03:58;7.33;;;2.37;;
16667;SDS011;8447;52.630;4.734;2023-06-14T05:06:26;3.87;;;1.47;;
16667;SDS011;8447;52.630;4.734;2023-06-14T05:08:52;5.67;;;1.90;;
16667;SDS011;8447;52.630;4.734;2023-06-14T05:11:19;3.03;;;1.30;;
16667;SDS011;8447;52.630;4.734;2023-06-14T05:13:45;2.80;;;1.73;;
16667;SDS011;8447;52.630;4.734;2023-06-14T05:16:12;3.93;;;1.83;;
16667;SDS011;8447;52.630;4.734;2023-06-14T05:18:40;2.20;;;1.47;;
16667;SDS011;8447;52.630;4.734;2023-06-14T05:21:07;1.50;;;1.20;;
16667;SDS011;8447;52.630;4.734;2023-06-14T05:23:35;4.27;;;1.60;;
16667;SDS011;8447;52.630;4.734;2023-06-14T05:26:01;9.57;;;1.80;;
16667;SDS011;8447;52.630;4.734;2023-06-14T05:28:29;2.50;;;1.53;;
16667;SDS011;8447;52.630;4.734;2023-06-14T05:30:56;4.80;;;1.80;;
16667;SDS011;8447;52.630;4.734;2023-06-14T05:33:23;8.27;;;1.60;;
16667;SDS011;8447;52.630;4.734;2023-06-14T05:35:49;3.73;;;1.50;;
16667;SDS011;8447;52.630;4.734;2023-06-14T05:38:15;4.93;;;1.50;;
16667;SDS011;8447;52.630;4.734;2023-06-14T05:40:43;3.03;;;2.00;;
16667;SDS011;8447;52.630;4.734;2023-06-14T05:43:10;2.90;;;1.53;;
16667;SDS011;8447;52.630;4.734;2023-06-14T05:45:36;2.50;;;1.80;;
16667;SDS011;8447;52.630;4.734;2023-06-14T05:48:03;3.53;;;1.70;;
16667;SDS011;8447;52.630;4.734;2023-06-14T05:50:29;4.33;;;1.50;;
16667;SDS011;8447;52.630;4.734;2023-06-14T05:52:56;3.20;;;1.77;;
16667;SDS011;8447;52.630;4.734;2023-06-14T05:55:22;3.93;;;1.50;;
16667;SDS011;8447;52.630;4.734;2023-06-14T05:57:50;3.60;;;2.00;;
16667;SDS011;8447;52.630;4.734;2023-06-14T06:00:17;4.47;;;1.70;;
16667;SDS011;8447;52.630;4.734;2023-06-14T06:02:44;3.47;;;1.60;;
16667;SDS011;8447;52.630;4.734;2023-06-14T06:05:12;4.93;;;1.97;;
16667;SDS011;8447;52.630;4.734;2023-06-14T06:07:41;3.63;;;1.60;;
16667;SDS011;8447;52.630;4.734;2023-06-14T06:10:09;3.93;;;1.37;;
16667;SDS011;8447;52.630;4.734;2023-06-14T06:12:36;4.57;;;1.70;;
16667;SDS011;8447;52.630;4.734;2023-06-14T06:15:04;4.07;;;1.70;;
16667;SDS011;8447;52.630;4.734;2023-06-14T06:17:31;4.27;;;1.70;;
16667;SDS011;8447;52.630;4.734;2023-06-14T06:19:57;2.37;;;1.77;;
16667;SDS011;8447;52.630;4.734;2023-06-14T06:22:24;3.53;;;1.80;;
16667;SDS011;8447;52.630;4.734;2023-06-14T06:24:50;3.27;;;1.70;;
16667;SDS011;8447;52.630;4.734;2023-06-14T06:27:16;3.50;;;2.13;;
16667;SDS011;8447;52.630;4.734;2023-06-14T06:29:44;5.80;;;2.03;;
16667;SDS011;8447;52.630;4.734;2023-06-14T06:32:11;2.03;;;1.70;;
16667;SDS011;8447;52.630;4.734;2023-06-14T06:34:38;3.07;;;1.90;;
16667;SDS011;8447;52.630;4.734;2023-06-14T06:37:05;3.00;;;1.70;;
16667;SDS011;8447;52.630;4.734;2023-06-14T06:39:31;2.57;;;1.70;;
16667;SDS011;8447;52.630;4.734;2023-06-14T06:41:57;5.60;;;1.90;;
16667;SDS011;8447;52.630;4.734;2023-06-14T06:44:24;3.67;;;2.03;;
16667;SDS011;8447;52.630;4.734;2023-06-14T06:46:50;3.13;;;1.50;;
16667;SDS011;8447;52.630;4.734;2023-06-14T06:49:18;3.60;;;1.93;;
16667;SDS011;8447;52.630;4.734;2023-06-14T06:51:53;5.23;;;1.83;;
16667;SDS011;8447;52.630;4.734;2023-06-14T06:54:24;2.07;;;1.50;;
16667;SDS011;8447;52.630;4.734;2023-06-14T06:56:51;9.37;;;1.90;;
16667;SDS011;8447;52.630;4.734;2023-06-14T06:59:17;1.93;;;1.60;;
16667;SDS011;8447;52.630;4.734;2023-06-14T07:01:44;5.43;;;1.97;;
16667;SDS011;8447;52.630;4.734;2023-06-14T07:04:10;5.30;;;2.13;;
16667;SDS011;8447;52.630;4.734;2023-06-14T07:06:38;3.60;;;2.00;;
16667;SDS011;8447;52.630;4.734;2023-06-14T07:09:04;6.53;;;2.10;;
16667;SDS011;8447;52.630;4.734;2023-06-14T07:11:33;6.80;;;2.23;;
16667;SDS011;8447;52.630;4.734;2023-06-14T07:13:59;3.70;;;1.90;;
16667;SDS011;8447;52.630;4.734;2023-06-14T07:16:26;4.73;;;2.17;;
16667;SDS011;8447;52.630;4.734;2023-06-14T07:18:52;6.80;;;2.30;;
16667;SDS011;8447;52.630;4.734;2023-06-14T07:21:18;3.23;;;1.80;;
16667;SDS011;8447;52.630;4.734;2023-06-14T07:23:46;4.87;;;2.20;;
16667;SDS011;8447;52.630;4.734;2023-06-14T07:26:12;3.83;;;1.90;;
16667;SDS011;8447;52.630;4.734;2023-06-14T07:28:39;4.33;;;2.30;;
16667;SDS011;8447;52.630;4.734;2023-06-14T07:31:05;4.63;;;2.20;;
16667;SDS011;8447;52.630;4.734;2023-06-14T07:33:32;5.53;;;1.80;;
16667;SDS011;8447;52.630;4.734;2023-06-14T07:35:59;6.77;;;2.53;;
16667;SDS011;8447;52.630;4.734;2023-06-14T07:38:25;3.53;;;2.30;;
16667;SDS011;8447;52.630;4.734;2023-06-14T07:40:54;3.63;;;1.67;;
16667;SDS011;8447;52.630;4.734;2023-06-14T07:43:21;3.47;;;2.07;;
16667;SDS011;8447;52.630;4.734;2023-06-14T07:45:47;4.80;;;2.17;;
16667;SDS011;8447;52.630;4.734;2023-06-14T07:48:13;6.73;;;1.87;;
16667;SDS011;8447;52.630;4.734;2023-06-14T07:50:40;3.73;;;2.23;;
16667;SDS011;8447;52.630;4.734;2023-06-14T07:53:06;3.93;;;1.83;;
16667;SDS011;8447;52.630;4.734;2023-06-14T07:55:32;3.08;;;2.22;;
16667;SDS011;8447;52.630;4.734;2023-06-14T07:58:03;3.55;;;2.03;;
16667;SDS011;8447;52.630;4.734;2023-06-14T08:00:29;3.65;;;2.03;;
16667;SDS011;8447;52.630;4.734;2023-06-14T08:02:56;2.92;;;2.00;;
16667;SDS011;8447;52.630;4.734;2023-06-14T08:05:23;4.07;;;2.22;;
16667;SDS011;8447;52.630;4.734;2023-06-14T08:07:50;6.53;;;2.00;;
16667;SDS011;8447;52.630;4.734;2023-06-14T08:10:17;3.28;;;2.10;;
16667;SDS011;8447;52.630;4.734;2023-06-14T08:12:44;2.70;;;2.30;;
16667;SDS011;8447;52.630;4.734;2023-06-14T08:15:11;2.10;;;1.88;;
16667;SDS011;8447;52.630;4.734;2023-06-14T08:17:38;8.00;;;2.35;;
16667;SDS011;8447;52.630;4.734;2023-06-14T08:20:04;3.65;;;2.30;;
16667;SDS011;8447;52.630;4.734;2023-06-14T08:22:31;2.45;;;2.05;;
16667;SDS011;8447;52.630;4.734;2023-06-14T08:24:59;6.90;;;1.92;;
16667;SDS011;8447;52.630;4.734;2023-06-14T08:27:26;3.25;;;2.22;;
16667;SDS011;8447;52.630;4.734;2023-06-14T08:29:53;3.72;;;2.33;;
16667;SDS011;8447;52.630;4.734;2023-06-14T08:32:20;2.90;;;1.88;;
16667;SDS011;8447;52.630;4.734;2023-06-14T08:34:47;3.33;;;1.80;;
16667;SDS011;8447;52.630;4.734;2023-06-14T08:37:13;6.78;;;1.98;;
16667;SDS011;8447;52.630;4.734;2023-06-14T08:39:39;5.50;;;1.70;;
16667;SDS011;8447;52.630;4.734;2023-06-14T08:42:06;4.07;;;2.15;;
16667;SDS011;8447;52.630;4.734;2023-06-14T08:44:33;3.10;;;2.28;;
16667;SDS011;8447;52.630;4.734;2023-06-14T08:46:59;3.97;;;1.77;;
16667;SDS011;8447;52.630;4.734;2023-06-14T08:49:27;2.13;;;1.67;;
16667;SDS011;8447;52.630;4.734;2023-06-14T08:51:56;2.78;;;1.88;;
16667;SDS011;8447;52.630;4.734;2023-06-14T08:54:23;3.40;;;1.70;;
16667;SDS011;8447;52.630;4.734;2023-06-14T08:56:52;4.18;;;2.00;;
16667;SDS011;8447;52.630;4.734;2023-06-14T08:59:19;3.13;;;1.80;;
16667;SDS011;8447;52.630;4.734;2023-06-14T09:01:46;4.43;;;2.03;;
16667;SDS011;8447;52.630;4.734;2023-06-14T09:04:12;5.25;;;1.80;;
16667;SDS011;8447;52.630;4.734;2023-06-14T09:06:40;2.75;;;1.70;;
16667;SDS011;8447;52.630;4.734;2023-06-14T09:09:07;6.93;;;1.90;;
16667;SDS011;8447;52.630;4.734;2023-06-14T09:11:34;2.83;;;1.83;;
16667;SDS011;8447;52.630;4.734;2023-06-14T09:14:01;12.10;;;2.28;;
16667;SDS011;8447;52.630;4.734;2023-06-14T09:16:27;3.55;;;1.63;;
16667;SDS011;8447;52.630;4.734;2023-06-14T09:18:54;3.20;;;1.70;;
16667;SDS011;8447;52.630;4.734;2023-06-14T09:21:20;3.85;;;1.80;;
16667;SDS011;8447;52.630;4.734;2023-06-14T09:23:48;2.60;;;1.52;;
16667;SDS011;8447;52.630;4.734;2023-06-14T09:26:15;5.40;;;1.77;;
16667;SDS011;8447;52.630;4.734;2023-06-14T09:28:42;6.80;;;1.70;;
16667;SDS011;8447;52.630;4.734;2023-06-14T09:31:09;5.85;;;1.60;;
16667;SDS011;8447;52.630;4.734;2023-06-14T09:33:36;2.30;;;1.40;;
16667;SDS011;8447;52.630;4.734;2023-06-14T09:36:03;3.92;;;1.40;;
16667;SDS011;8447;52.630;4.734;2023-06-14T09:38:29;2.75;;;1.38;;
16667;SDS011;8447;52.630;4.734;2023-06-14T09:40:57;4.60;;;1.58;;
16667;SDS011;8447;52.630;4.734;2023-06-14T09:43:24;2.60;;;1.40;;
16667;SDS011;8447;52.630;4.734;2023-06-14T09:45:51;3.92;;;1.33;;
16667;SDS011;8447;52.630;4.734;2023-06-14T09:48:17;3.42;;;1.40;;
16667;SDS011;8447;52.630;4.734;2023-06-14T09:50:44;2.63;;;1.40;;
16667;SDS011;8447;52.630;4.734;2023-06-14T09:53:11;2.83;;;1.30;;
16667;SDS011;8447;52.630;4.734;2023-06-14T09:55:38;3.08;;;1.20;;
16667;SDS011;8447;52.630;4.734;2023-06-14T09:58:07;1.30;;;1.10;;
16667;SDS011;8447;52.630;4.734;2023-06-14T10:00:35;2.15;;;1.30;;
16667;SDS011;8447;52.630;4.734;2023-06-14T10:03:05;1.88;;;1.40;;
16667;SDS011;8447;52.630;4.734;2023-06-14T10:05:32;3.42;;;1.10;;
16667;SDS011;8447;52.630;4.734;2023-06-14T10:08:03;3.30;;;1.30;;
16667;SDS011;8447;52.630;4.734;2023-06-14T10:10:30;2.40;;;1.10;;
16667;SDS011;8447;52.630;4.734;2023-06-14T10:12:56;4.22;;;1.42;;
16667;SDS011;8447;52.630;4.734;2023-06-14T10:15:31;2.90;;;1.35;;
16667;SDS011;8447;52.630;4.734;2023-06-14T10:17:59;4.43;;;1.25;;
16667;SDS011;8447;52.630;4.734;2023-06-14T10:20:29;2.95;;;1.27;;
16667;SDS011;8447;52.630;4.734;2023-06-14T10:22:58;1.10;;;1.00;;
16667;SDS011;8447;52.630;4.734;2023-06-14T10:25:26;2.72;;;1.30;;
16667;SDS011;8447;52.630;4.734;2023-06-14T10:27:56;1.88;;;1.23;;
16667;SDS011;8447;52.630;4.734;2023-06-14T10:30:29;3.85;;;1.10;;
16667;SDS011;8447;52.630;4.734;2023-06-14T10:33:04;5.35;;;1.00;;
16667;SDS011;8447;52.630;4.734;2023-06-14T10:35:32;4.10;;;1.48;;
16667;SDS011;8447;52.630;4.734;2023-06-14T10:38:06;1.67;;;1.10;;
16667;SDS011;8447;52.630;4.734;2023-06-14T10:40:32;1.55;;;1.10;;
16667;SDS011;8447;52.630;4.734;2023-06-14T10:42:59;2.03;;;1.27;;
16667;SDS011;8447;52.630;4.734;2023-06-14T10:45:25;3.60;;;1.33;;
16667;SDS011;8447;52.630;4.734;2023-06-14T10:47:57;1.70;;;1.48;;
16667;SDS011;8447;52.630;4.734;2023-06-14T10:50:27;2.00;;;1.35;;
16667;SDS011;8447;52.630;4.734;2023-06-14T10:52:53;3.10;;;1.13;;
16667;SDS011;8447;52.630;4.734;2023-06-14T10:55:20;3.03;;;1.10;;
16667;SDS011;8447;52.630;4.734;2023-06-14T10:57:48;2.08;;;1.10;;
16667;SDS011;8447;52.630;4.734;2023-06-14T11:00:17;1.90;;;1.20;;
16667;SDS011;8447;52.630;4.734;2023-06-14T11:05:29;2.00;;;1.13;;
16667;SDS011;8447;52.630;4.734;2023-06-14T11:08:04;2.75;;;1.13;;
16667;SDS011;8447;52.630;4.734;2023-06-14T11:10:35;2.45;;;1.20;;
16667;SDS011;8447;52.630;4.734;2023-06-14T11:13:02;4.80;;;1.42;;
16667;SDS011;8447;52.630;4.734;2023-06-14T11:15:29;4.10;;;1.23;;
16667;SDS011;8447;52.630;4.734;2023-06-14T11:17:55;4.68;;;1.00;;
16667;SDS011;8447;52.630;4.734;2023-06-14T11:20:24;4.35;;;1.17;;
16667;SDS011;8447;52.630;4.734;2023-06-14T11:22:52;3.35;;;1.10;;
16667;SDS011;8447;52.630;4.734;2023-06-14T11:25:19;2.50;;;1.38;;
16667;SDS011;8447;52.630;4.734;2023-06-14T11:27:45;4.22;;;1.60;;
16667;SDS011;8447;52.630;4.734;2023-06-14T11:30:13;3.63;;;1.27;;
16667;SDS011;8447;52.630;4.734;2023-06-14T11:32:40;3.45;;;1.35;;
16667;SDS011;8447;52.630;4.734;2023-06-14T11:35:07;5.03;;;1.30;;
16667;SDS011;8447;52.630;4.734;2023-06-14T11:37:35;3.83;;;1.42;;
16667;SDS011;8447;52.630;4.734;2023-06-14T11:40:04;2.47;;;1.17;;
16667;SDS011;8447;52.630;4.734;2023-06-14T11:42:33;5.82;;;1.08;;
16667;SDS011;8447;52.630;4.734;2023-06-14T11:45:00;1.33;;;1.23;;
16667;SDS011;8447;52.630;4.734;2023-06-14T11:47:30;2.25;;;1.27;;
16667;SDS011;8447;52.630;4.734;2023-06-14T11:49:58;5.22;;;1.40;;
16667;SDS011;8447;52.630;4.734;2023-06-14T11:52:24;2.13;;;1.30;;
16667;SDS011;8447;52.630;4.734;2023-06-14T11:54:50;2.83;;;1.50;;
16667;SDS011;8447;52.630;4.734;2023-06-14T11:57:18;1.65;;;1.15;;
16667;SDS011;8447;52.630;4.734;2023-06-14T11:59:45;5.10;;;1.10;;
16667;SDS011;8447;52.630;4.734;2023-06-14T12:02:13;1.55;;;1.08;;
16667;SDS011;8447;52.630;4.734;2023-06-14T12:04:40;4.00;;;1.40;;
16667;SDS011;8447;52.630;4.734;2023-06-14T12:07:10;3.22;;;1.10;;
16667;SDS011;8447;52.630;4.734;2023-06-14T12:09:37;3.85;;;1.23;;
16667;SDS011;8447;52.630;4.734;2023-06-14T12:12:04;1.58;;;1.10;;
16667;SDS011;8447;52.630;4.734;2023-06-14T12:14:33;1.40;;;0.93;;
16667;SDS011;8447;52.630;4.734;2023-06-14T12:17:03;3.13;;;1.60;;
16667;SDS011;8447;52.630;4.734;2023-06-14T12:19:30;1.60;;;1.20;;
16667;SDS011;8447;52.630;4.734;2023-06-14T12:21:58;8.87;;;1.50;;
16667;SDS011;8447;52.630;4.734;2023-06-14T12:24:27;1.30;;;0.90;;
16667;SDS011;8447;52.630;4.734;2023-06-14T12:26:54;1.40;;;1.27;;
16667;SDS011;8447;52.630;4.734;2023-06-14T12:29:20;1.40;;;1.20;;
16667;SDS011;8447;52.630;4.734;2023-06-14T12:31:48;1.30;;;1.20;;
16667;SDS011;8447;52.630;4.734;2023-06-14T12:34:14;1.33;;;1.23;;
16667;SDS011;8447;52.630;4.734;2023-06-14T12:36:41;1.13;;;0.97;;
16667;SDS011;8447;52.630;4.734;2023-06-14T12:39:09;3.77;;;1.40;;
16667;SDS011;8447;52.630;4.734;2023-06-14T12:41:36;2.40;;;1.10;;
16667;SDS011;8447;52.630;4.734;2023-06-14T12:44:02;2.53;;;1.10;;
16667;SDS011;8447;52.630;4.734;2023-06-14T12:46:30;2.50;;;1.53;;
16667;SDS011;8447;52.630;4.734;2023-06-14T12:48:57;3.37;;;1.27;;
16667;SDS011;8447;52.630;4.734;2023-06-14T12:51:24;4.07;;;1.43;;
16667;SDS011;8447;52.630;4.734;2023-06-14T12:53:50;1.93;;;1.20;;
16667;SDS011;8447;52.630;4.734;2023-06-14T12:56:17;1.53;;;1.20;;
16667;SDS011;8447;52.630;4.734;2023-06-14T12:58:43;1.50;;;1.13;;
16667;SDS011;8447;52.630;4.734;2023-06-14T13:01:10;2.63;;;0.87;;
16667;SDS011;8447;52.630;4.734;2023-06-14T13:03:36;2.73;;;1.47;;
16667;SDS011;8447;52.630;4.734;2023-06-14T13:06:04;1.70;;;1.20;;
16667;SDS011;8447;52.630;4.734;2023-06-14T13:08:31;7.50;;;1.30;;
16667;SDS011;8447;52.630;4.734;2023-06-14T13:10:57;2.40;;;1.20;;
16667;SDS011;8447;52.630;4.734;2023-06-14T13:13:23;3.47;;;1.47;;
16667;SDS011;8447;52.630;4.734;2023-06-14T13:15:50;2.53;;;0.90;;
16667;SDS011;8447;52.630;4.734;2023-06-14T13:18:16;1.67;;;1.10;;
16667;SDS011;8447;52.630;4.734;2023-06-14T13:20:43;3.07;;;1.10;;
16667;SDS011;8447;52.630;4.734;2023-06-14T13:23:10;1.13;;;0.90;;
16667;SDS011;8447;52.630;4.734;2023-06-14T13:25:37;1.67;;;0.93;;
16667;SDS011;8447;52.630;4.734;2023-06-14T13:28:04;1.97;;;1.17;;
16667;SDS011;8447;52.630;4.734;2023-06-14T13:30:30;1.57;;;1.30;;
16667;SDS011;8447;52.630;4.734;2023-06-14T13:32:57;2.83;;;1.07;;
16667;SDS011;8447;52.630;4.734;2023-06-14T13:35:24;4.23;;;1.20;;
16667;SDS011;8447;52.630;4.734;2023-06-14T13:37:50;2.93;;;1.00;;
16667;SDS011;8447;52.630;4.734;2023-06-14T13:40:18;2.43;;;1.03;;
16667;SDS011;8447;52.630;4.734;2023-06-14T13:42:45;2.60;;;1.10;;
16667;SDS011;8447;52.630;4.734;2023-06-14T13:45:12;4.33;;;1.40;;
16667;SDS011;8447;52.630;4.734;2023-06-14T13:47:38;1.20;;;1.10;;
16667;SDS011;8447;52.630;4.734;2023-06-14T13:50:05;5.93;;;2.00;;
16667;SDS011;8447;52.630;4.734;2023-06-14T13:52:34;2.73;;;1.17;;
16667;SDS011;8447;52.630;4.734;2023-06-14T13:55:01;2.67;;;1.13;;
16667;SDS011;8447;52.630;4.734;2023-06-14T13:57:28;1.40;;;1.07;;
16667;SDS011;8447;52.630;4.734;2023-06-14T13:59:55;1.20;;;0.90;;
16667;SDS011;8447;52.630;4.734;2023-06-14T14:02:26;1.90;;;1.17;;
16667;SDS011;8447;52.630;4.734;2023-06-14T14:04:53;1.60;;;1.03;;
16667;SDS011;8447;52.630;4.734;2023-06-14T14:07:19;2.00;;;1.00;;
16667;SDS011;8447;52.630;4.734;2023-06-14T14:09:47;1.60;;;1.10;;
16667;SDS011;8447;52.630;4.734;2023-06-14T14:12:13;4.80;;;1.07;;
16667;SDS011;8447;52.630;4.734;2023-06-14T14:14:41;3.40;;;1.27;;
16667;SDS011;8447;52.630;4.734;2023-06-14T14:17:08;0.90;;;0.90;;
16667;SDS011;8447;52.630;4.734;2023-06-14T14:19:34;1.83;;;1.00;;
16667;SDS011;8447;52.630;4.734;2023-06-14T14:22:01;1.93;;;1.10;;
16667;SDS011;8447;52.630;4.734;2023-06-14T14:24:27;2.50;;;1.30;;
16667;SDS011;8447;52.630;4.734;2023-06-14T14:26:54;2.93;;;1.13;;
16667;SDS011;8447;52.630;4.734;2023-06-14T14:29:24;3.40;;;1.00;;
16667;SDS011;8447;52.630;4.734;2023-06-14T14:31:55;1.17;;;1.07;;
16667;SDS011;8447;52.630;4.734;2023-06-14T14:34:21;2.23;;;1.00;;
16667;SDS011;8447;52.630;4.734;2023-06-14T14:36:48;1.77;;;1.00;;
16667;SDS011;8447;52.630;4.734;2023-06-14T14:39:14;2.23;;;1.10;;
16667;SDS011;8447;52.630;4.734;2023-06-14T14:41:41;1.00;;;0.90;;
16667;SDS011;8447;52.630;4.734;2023-06-14T14:44:07;1.53;;;1.00;;
16667;SDS011;8447;52.630;4.734;2023-06-14T14:46:34;4.10;;;1.40;;
16667;SDS011;8447;52.630;4.734;2023-06-14T14:49:02;3.33;;;1.10;;
16667;SDS011;8447;52.630;4.734;2023-06-14T14:51:28;1.60;;;0.97;;
16667;SDS011;8447;52.630;4.734;2023-06-14T14:53:54;1.07;;;0.97;;
16667;SDS011;8447;52.630;4.734;2023-06-14T14:56:22;1.37;;;1.20;;
16667;SDS011;8447;52.630;4.734;2023-06-14T14:58:48;2.63;;;1.10;;
16667;SDS011;8447;52.630;4.734;2023-06-14T15:01:15;4.83;;;1.90;;
16667;SDS011;8447;52.630;4.734;2023-06-14T15:03:42;2.90;;;1.40;;